Lead Hill, AR (72630)

7:49 PM CDT on October 22, 2014 (GMT -0500)
KARLEADH2 | Change Station
CLOSE
Current Station
Personal Weather Station
Location: Lead Hill, AR
Elevation: 839 ft
Nearby Weather Stations

Elev 839 ft 36.42 °N, 92.91 °W | Updated 3 minutes ago

Clear
Clear
60.2 °F
Feels Like 60.2 °F
N
0.0
Wind Variable Wind from SSE
Gusts 0.0 mph

Today
High -- | Low -- °F
--% Chance of Precip.
Yesterday
High -- | Low -- °F
Precip. -- in
7:25 AM 6:26 PM
Waning Crescent, 1% visible
Pressure 30.16 in
Visibility 10.0 miles
Clouds Clear
Dew Point 48 °F
Humidity 65%
Rainfall 0.00 in
Snow Depth Not available.
UV 0 out of 12
Pollen 2.70 out of 12
Air Quality Not available.
Flu Activity Sporadic
METAR KHRO 222353Z AUTO 10004KT 10SM CLR 16/09 A3017 RMK AO2 SLP213 T01560094 10211 20156 55002

More Conditions Fewer Conditions

Pressure 30.16 in
Visibility 10.0 miles
Clouds Clear
Dew Point 48 °F
Humidity 65%
Rainfall 0.00 in
Snow Depth Not available.
UV 0 out of 12
Pollen 2.70 out of 12
Air Quality Not available.
Flu Activity Sporadic
METAR KHRO 222353Z AUTO 10004KT 10SM CLR 16/09 A3017 RMK AO2 SLP213 T01560094 10211 20156 55002

More Conditions Fewer Conditions

10-Day Weather Forecast

Almanac

Astronomy

Oct. 22, 2014 Rise Set
Actual Time 7:25 AM CDT 6:26 PM CDT
Civil Twilight 6:59 AM CDT 6:52 PM CDT
Nautical Twilight 6:28 AM CDT 7:22 PM CDT
Astronomical Twilight 5:59 AM CDT 7:52 PM CDT
Moon 6:09 AM CDT (10/22) 5:52 PM CDT (10/22)
Length of Visible Light 11h 53m
Length of Day
11h 01m
Tomorrow will be 2m 9s shorter.
Waning Crescent, 1% of the Moon is Illuminated
Today
Waning Crescent
Oct 23
New
Oct 30
First Quarter
Nov 6
Full
Nov 14
Last Quarter

Today's Extremes

State Highs State Lows

Community

WunderPhotos

Upload Photos

1,764,098 photos uploaded!

WunderBlogs® & News

Nearby

Snow Depth

Station Depth Elevation
No new snow has been reported.

Earthquake Activity

City Distance Mag. Time & Date
No recent earthquake activity has been reported nearby.
Minimum magnitude displayed is 2.5.

Coastal Water Temperatures

Place Temperature
No Stations Reporting

Nearby Weather Stations